sensor_id;sensor_type;location;lat;lon;timestamp;temperature;humidity
5258;DHT22;2651;51.594;9.928;2023-05-07T00:00:13;14.40;1.00
5258;DHT22;2651;51.594;9.928;2023-05-07T00:01:17;14.40;1.00
5258;DHT22;2651;51.594;9.928;2023-05-07T00:02:20;14.40;1.00
5258;DHT22;2651;51.594;9.928;2023-05-07T00:03:22;14.40;1.00
5258;DHT22;2651;51.594;9.928;2023-05-07T00:04:24;14.30;1.00
5258;DHT22;2651;51.594;9.928;2023-05-07T00:05:26;14.30;1.00
5258;DHT22;2651;51.594;9.928;2023-05-07T00:06:28;14.30;1.00
5258;DHT22;2651;51.594;9.928;2023-05-07T00:07:30;14.30;1.00
5258;DHT22;2651;51.594;9.928;2023-05-07T00:08:32;14.30;1.00
5258;DHT22;2651;51.594;9.928;2023-05-07T00:09:34;14.30;1.00
5258;DHT22;2651;51.594;9.928;2023-05-07T00:10:36;14.30;1.00
5258;DHT22;2651;51.594;9.928;2023-05-07T00:11:37;14.30;1.00
5258;DHT22;2651;51.594;9.928;2023-05-07T00:12:40;14.30;1.00
5258;DHT22;2651;51.594;9.928;2023-05-07T00:13:42;14.40;1.00
5258;DHT22;2651;51.594;9.928;2023-05-07T00:14:44;14.40;1.00
5258;DHT22;2651;51.594;9.928;2023-05-07T00:15:45;14.40;1.00
5258;DHT22;2651;51.594;9.928;2023-05-07T00:16:47;14.40;1.00
5258;DHT22;2651;51.594;9.928;2023-05-07T00:17:49;14.40;1.00
5258;DHT22;2651;51.594;9.928;2023-05-07T00:18:52;14.30;1.00
5258;DHT22;2651;51.594;9.928;2023-05-07T00:19:54;14.30;1.00
5258;DHT22;2651;51.594;9.928;2023-05-07T00:20:55;14.30;1.00
5258;DHT22;2651;51.594;9.928;2023-05-07T00:21:57;14.30;1.00
5258;DHT22;2651;51.594;9.928;2023-05-07T00:22:59;14.30;1.00
5258;DHT22;2651;51.594;9.928;2023-05-07T00:24:01;14.30;84.60
5258;DHT22;2651;51.594;9.928;2023-05-07T00:25:03;14.30;5.00
5258;DHT22;2651;51.594;9.928;2023-05-07T00:26:04;14.30;1.00
5258;DHT22;2651;51.594;9.928;2023-05-07T00:27:06;14.30;37.60
5258;DHT22;2651;51.594;9.928;2023-05-07T00:28:08;14.30;1.00
5258;DHT22;2651;51.594;9.928;2023-05-07T00:29:09;14.20;1.00
5258;DHT22;2651;51.594;9.928;2023-05-07T00:30:11;14.20;1.00
5258;DHT22;2651;51.594;9.928;2023-05-07T00:31:13;14.10;99.90
5258;DHT22;2651;51.594;9.928;2023-05-07T00:32:15;14.10;1.00
5258;DHT22;2651;51.594;9.928;2023-05-07T00:33:17;14.10;99.90
5258;DHT22;2651;51.594;9.928;2023-05-07T00:34:18;14.10;1.00
5258;DHT22;2651;51.594;9.928;2023-05-07T00:35:20;14.20;1.00
5258;DHT22;2651;51.594;9.928;2023-05-07T00:36:22;14.20;1.00
5258;DHT22;2651;51.594;9.928;2023-05-07T00:37:23;14.10;99.90
5258;DHT22;2651;51.594;9.928;2023-05-07T00:38:25;14.20;1.00
5258;DHT22;2651;51.594;9.928;2023-05-07T00:39:27;14.10;10.60
5258;DHT22;2651;51.594;9.928;2023-05-07T00:40:28;14.20;1.00
5258;DHT22;2651;51.594;9.928;2023-05-07T00:41:30;14.10;1.00
5258;DHT22;2651;51.594;9.928;2023-05-07T00:42:34;14.10;99.90
5258;DHT22;2651;51.594;9.928;2023-05-07T00:43:36;14.10;1.00
5258;DHT22;2651;51.594;9.928;2023-05-07T00:44:37;14.10;99.90
5258;DHT22;2651;51.594;9.928;2023-05-07T00:45:39;14.10;1.00
5258;DHT22;2651;51.594;9.928;2023-05-07T00:46:41;14.00;99.90
5258;DHT22;2651;51.594;9.928;2023-05-07T00:47:43;14.00;1.00
5258;DHT22;2651;51.594;9.928;2023-05-07T00:48:45;14.00;1.00
5258;DHT22;2651;51.594;9.928;2023-05-07T00:49:46;14.00;99.90
5258;DHT22;2651;51.594;9.928;2023-05-07T00:50:48;14.10;1.00
5258;DHT22;2651;51.594;9.928;2023-05-07T00:51:50;14.10;1.00
5258;DHT22;2651;51.594;9.928;2023-05-07T00:52:52;14.10;1.00
5258;DHT22;2651;51.594;9.928;2023-05-07T00:53:54;14.10;1.00
5258;DHT22;2651;51.594;9.928;2023-05-07T00:54:55;14.10;99.90
5258;DHT22;2651;51.594;9.928;2023-05-07T00:55:57;14.10;99.90
5258;DHT22;2651;51.594;9.928;2023-05-07T00:56:59;14.00;99.90
5258;DHT22;2651;51.594;9.928;2023-05-07T00:58:01;14.00;99.90
5258;DHT22;2651;51.594;9.928;2023-05-07T00:59:03;14.00;1.00
5258;DHT22;2651;51.594;9.928;2023-05-07T01:00:06;14.00;1.00
5258;DHT22;2651;51.594;9.928;2023-05-07T01:01:09;14.00;99.90
5258;DHT22;2651;51.594;9.928;2023-05-07T01:02:11;14.00;1.00
5258;DHT22;2651;51.594;9.928;2023-05-07T01:03:13;14.00;99.90
5258;DHT22;2651;51.594;9.928;2023-05-07T01:04:15;14.00;1.00
5258;DHT22;2651;51.594;9.928;2023-05-07T01:05:18;13.90;1.00
5258;DHT22;2651;51.594;9.928;2023-05-07T01:06:21;13.80;1.00
5258;DHT22;2651;51.594;9.928;2023-05-07T01:07:24;13.90;1.00
5258;DHT22;2651;51.594;9.928;2023-05-07T01:08:26;13.80;99.90
5258;DHT22;2651;51.594;9.928;2023-05-07T01:09:30;13.70;99.90
5258;DHT22;2651;51.594;9.928;2023-05-07T01:10:33;13.60;99.90
5258;DHT22;2651;51.594;9.928;2023-05-07T01:11:35;13.70;1.00
5258;DHT22;2651;51.594;9.928;2023-05-07T01:12:37;13.70;1.00
5258;DHT22;2651;51.594;9.928;2023-05-07T01:13:40;13.70;99.90
5258;DHT22;2651;51.594;9.928;2023-05-07T01:14:42;13.60;99.90
5258;DHT22;2651;51.594;9.928;2023-05-07T01:15:44;13.70;1.00
5258;DHT22;2651;51.594;9.928;2023-05-07T01:16:47;13.70;1.00
5258;DHT22;2651;51.594;9.928;2023-05-07T01:17:49;13.70;99.90
5258;DHT22;2651;51.594;9.928;2023-05-07T01:18:51;13.70;99.90
5258;DHT22;2651;51.594;9.928;2023-05-07T01:19:53;13.70;99.90
5258;DHT22;2651;51.594;9.928;2023-05-07T01:20:56;13.70;1.00
5258;DHT22;2651;51.594;9.928;2023-05-07T01:22:03;13.70;99.90
5258;DHT22;2651;51.594;9.928;2023-05-07T01:23:06;13.70;1.00
5258;DHT22;2651;51.594;9.928;2023-05-07T01:24:08;13.70;1.00
5258;DHT22;2651;51.594;9.928;2023-05-07T01:25:10;13.70;1.00
5258;DHT22;2651;51.594;9.928;2023-05-07T01:26:12;13.70;1.00
5258;DHT22;2651;51.594;9.928;2023-05-07T01:27:14;13.70;1.00
5258;DHT22;2651;51.594;9.928;2023-05-07T01:28:15;13.80;1.00
5258;DHT22;2651;51.594;9.928;2023-05-07T01:29:17;13.80;99.90
5258;DHT22;2651;51.594;9.928;2023-05-07T01:30:20;13.80;1.00
5258;DHT22;2651;51.594;9.928;2023-05-07T01:31:23;13.80;1.00
5258;DHT22;2651;51.594;9.928;2023-05-07T01:32:49;13.80;99.90
5258;DHT22;2651;51.594;9.928;2023-05-07T01:33:52;13.80;99.90
5258;DHT22;2651;51.594;9.928;2023-05-07T01:34:55;13.70;99.90
5258;DHT22;2651;51.594;9.928;2023-05-07T01:35:59;13.80;1.00
5258;DHT22;2651;51.594;9.928;2023-05-07T01:37:03;13.80;99.90
5258;DHT22;2651;51.594;9.928;2023-05-07T01:38:05;13.70;99.90
5258;DHT22;2651;51.594;9.928;2023-05-07T01:39:09;13.70;99.90
5258;DHT22;2651;51.594;9.928;2023-05-07T01:40:11;13.60;1.00
5258;DHT22;2651;51.594;9.928;2023-05-07T01:41:13;13.70;1.00
5258;DHT22;2651;51.594;9.928;2023-05-07T01:42:15;13.60;1.00
5258;DHT22;2651;51.594;9.928;2023-05-07T01:43:17;13.70;1.00
5258;DHT22;2651;51.594;9.928;2023-05-07T01:44:19;13.60;99.90
5258;DHT22;2651;51.594;9.928;2023-05-07T01:45:21;13.60;99.90
5258;DHT22;2651;51.594;9.928;2023-05-07T01:46:23;13.60;1.00
5258;DHT22;2651;51.594;9.928;2023-05-07T01:47:26;13.60;1.00
5258;DHT22;2651;51.594;9.928;2023-05-07T01:48:28;13.70;1.00
5258;DHT22;2651;51.594;9.928;2023-05-07T01:49:30;13.60;1.00
5258;DHT22;2651;51.594;9.928;2023-05-07T01:50:32;13.70;1.00
5258;DHT22;2651;51.594;9.928;2023-05-07T01:51:35;13.60;99.90
5258;DHT22;2651;51.594;9.928;2023-05-07T01:52:38;13.50;99.90
5258;DHT22;2651;51.594;9.928;2023-05-07T01:53:40;13.50;1.00
5258;DHT22;2651;51.594;9.928;2023-05-07T01:54:42;13.50;1.00
5258;DHT22;2651;51.594;9.928;2023-05-07T01:55:44;13.50;99.90
5258;DHT22;2651;51.594;9.928;2023-05-07T01:56:46;13.50;1.00
5258;DHT22;2651;51.594;9.928;2023-05-07T01:57:50;13.50;99.90
5258;DHT22;2651;51.594;9.928;2023-05-07T01:58:52;13.50;99.90
5258;DHT22;2651;51.594;9.928;2023-05-07T01:59:53;13.50;99.90
5258;DHT22;2651;51.594;9.928;2023-05-07T02:00:55;13.50;70.40
5258;DHT22;2651;51.594;9.928;2023-05-07T02:01:56;13.40;1.00
5258;DHT22;2651;51.594;9.928;2023-05-07T02:02:58;13.40;1.00
5258;DHT22;2651;51.594;9.928;2023-05-07T02:04:00;13.40;1.00
5258;DHT22;2651;51.594;9.928;2023-05-07T02:05:02;13.30;99.90
5258;DHT22;2651;51.594;9.928;2023-05-07T02:06:03;13.30;1.00
5258;DHT22;2651;51.594;9.928;2023-05-07T02:07:05;13.30;1.00
5258;DHT22;2651;51.594;9.928;2023-05-07T02:08:07;13.30;1.00
5258;DHT22;2651;51.594;9.928;2023-05-07T02:09:08;13.30;99.90
5258;DHT22;2651;51.594;9.928;2023-05-07T02:10:10;13.40;99.90
5258;DHT22;2651;51.594;9.928;2023-05-07T02:11:12;13.40;1.00
5258;DHT22;2651;51.594;9.928;2023-05-07T02:12:14;13.40;1.00
5258;DHT22;2651;51.594;9.928;2023-05-07T02:13:15;13.40;1.00
5258;DHT22;2651;51.594;9.928;2023-05-07T02:14:17;13.40;1.00
5258;DHT22;2651;51.594;9.928;2023-05-07T02:15:19;13.40;1.00
5258;DHT22;2651;51.594;9.928;2023-05-07T02:16:20;13.40;1.00
5258;DHT22;2651;51.594;9.928;2023-05-07T02:17:23;13.50;1.00
5258;DHT22;2651;51.594;9.928;2023-05-07T02:18:25;13.40;1.00
5258;DHT22;2651;51.594;9.928;2023-05-07T02:19:26;13.40;1.00
5258;DHT22;2651;51.594;9.928;2023-05-07T02:20:28;13.50;1.00
5258;DHT22;2651;51.594;9.928;2023-05-07T02:21:30;13.50;1.00
5258;DHT22;2651;51.594;9.928;2023-05-07T02:22:31;13.50;99.90
5258;DHT22;2651;51.594;9.928;2023-05-07T02:23:33;13.50;99.90
5258;DHT22;2651;51.594;9.928;2023-05-07T02:24:35;13.50;1.00
5258;DHT22;2651;51.594;9.928;2023-05-07T02:25:36;13.50;99.90
5258;DHT22;2651;51.594;9.928;2023-05-07T02:26:39;13.50;99.90
5258;DHT22;2651;51.594;9.928;2023-05-07T02:27:40;13.40;99.90
5258;DHT22;2651;51.594;9.928;2023-05-07T02:28:42;13.40;1.00
5258;DHT22;2651;51.594;9.928;2023-05-07T02:29:44;13.40;1.00
5258;DHT22;2651;51.594;9.928;2023-05-07T02:30:45;13.40;1.00
5258;DHT22;2651;51.594;9.928;2023-05-07T02:31:47;13.30;99.90
5258;DHT22;2651;51.594;9.928;2023-05-07T02:32:52;13.30;1.00
5258;DHT22;2651;51.594;9.928;2023-05-07T02:33:53;13.40;1.00
5258;DHT22;2651;51.594;9.928;2023-05-07T02:34:55;13.30;99.90
5258;DHT22;2651;51.594;9.928;2023-05-07T02:35:57;13.20;99.90
5258;DHT22;2651;51.594;9.928;2023-05-07T02:37:06;13.10;99.90
5258;DHT22;2651;51.594;9.928;2023-05-07T02:38:07;13.10;1.00
5258;DHT22;2651;51.594;9.928;2023-05-07T02:39:14;13.10;1.00
5258;DHT22;2651;51.594;9.928;2023-05-07T02:40:16;13.10;99.90
5258;DHT22;2651;51.594;9.928;2023-05-07T02:41:18;13.10;1.00
5258;DHT22;2651;51.594;9.928;2023-05-07T02:42:20;13.10;99.90
5258;DHT22;2651;51.594;9.928;2023-05-07T02:43:21;13.10;1.00
5258;DHT22;2651;51.594;9.928;2023-05-07T02:44:23;13.10;99.90
5258;DHT22;2651;51.594;9.928;2023-05-07T02:45:25;13.10;99.90
5258;DHT22;2651;51.594;9.928;2023-05-07T02:46:26;13.10;1.00
5258;DHT22;2651;51.594;9.928;2023-05-07T02:47:28;13.00;99.90
5258;DHT22;2651;51.594;9.928;2023-05-07T02:48:30;13.00;99.90
5258;DHT22;2651;51.594;9.928;2023-05-07T02:49:31;13.10;99.90
5258;DHT22;2651;51.594;9.928;2023-05-07T02:50:33;13.00;1.00
5258;DHT22;2651;51.594;9.928;2023-05-07T02:51:35;12.90;99.90
5258;DHT22;2651;51.594;9.928;2023-05-07T02:52:36;12.90;1.00
5258;DHT22;2651;51.594;9.928;2023-05-07T02:53:38;13.00;99.90
5258;DHT22;2651;51.594;9.928;2023-05-07T02:54:39;13.00;15.00
5258;DHT22;2651;51.594;9.928;2023-05-07T02:55:41;13.10;1.00
5258;DHT22;2651;51.594;9.928;2023-05-07T02:56:43;13.00;1.00
5258;DHT22;2651;51.594;9.928;2023-05-07T02:57:44;13.00;1.00
5258;DHT22;2651;51.594;9.928;2023-05-07T02:58:46;13.00;1.00
5258;DHT22;2651;51.594;9.928;2023-05-07T02:59:47;12.90;99.90
5258;DHT22;2651;51.594;9.928;2023-05-07T03:00:49;12.90;1.00
5258;DHT22;2651;51.594;9.928;2023-05-07T03:01:51;13.00;83.20
5258;DHT22;2651;51.594;9.928;2023-05-07T03:02:52;13.00;1.00
5258;DHT22;2651;51.594;9.928;2023-05-07T03:03:54;13.10;1.00
5258;DHT22;2651;51.594;9.928;2023-05-07T03:04:56;13.10;1.00
5258;DHT22;2651;51.594;9.928;2023-05-07T03:05:57;13.10;99.90
5258;DHT22;2651;51.594;9.928;2023-05-07T03:06:59;13.10;1.00
5258;DHT22;2651;51.594;9.928;2023-05-07T03:08:00;13.10;92.10
5258;DHT22;2651;51.594;9.928;2023-05-07T03:09:02;13.20;1.00
5258;DHT22;2651;51.594;9.928;2023-05-07T03:10:04;13.20;1.00
5258;DHT22;2651;51.594;9.928;2023-05-07T03:11:06;13.20;99.90
5258;DHT22;2651;51.594;9.928;2023-05-07T03:12:08;13.20;99.90
5258;DHT22;2651;51.594;9.928;2023-05-07T03:13:09;13.20;99.90
5258;DHT22;2651;51.594;9.928;2023-05-07T03:14:11;13.20;99.90
5258;DHT22;2651;51.594;9.928;2023-05-07T03:15:13;13.20;99.90
5258;DHT22;2651;51.594;9.928;2023-05-07T03:16:15;13.20;99.90
5258;DHT22;2651;51.594;9.928;2023-05-07T03:17:16;13.20;99.90
5258;DHT22;2651;51.594;9.928;2023-05-07T03:18:18;13.10;62.00
5258;DHT22;2651;51.594;9.928;2023-05-07T03:19:20;13.10;99.90
5258;DHT22;2651;51.594;9.928;2023-05-07T03:20:21;13.10;99.90
5258;DHT22;2651;51.594;9.928;2023-05-07T03:21:23;13.10;1.00
5258;DHT22;2651;51.594;9.928;2023-05-07T03:22:25;13.10;1.00
5258;DHT22;2651;51.594;9.928;2023-05-07T03:23:27;13.00;1.00
5258;DHT22;2651;51.594;9.928;2023-05-07T03:24:28;13.00;1.00
5258;DHT22;2651;51.594;9.928;2023-05-07T03:25:30;13.00;1.00
5258;DHT22;2651;51.594;9.928;2023-05-07T03:26:32;13.00;1.00
5258;DHT22;2651;51.594;9.928;2023-05-07T03:27:33;13.00;1.00
5258;DHT22;2651;51.594;9.928;2023-05-07T03:28:35;12.90;1.00
5258;DHT22;2651;51.594;9.928;2023-05-07T03:29:36;12.90;1.00
5258;DHT22;2651;51.594;9.928;2023-05-07T03:30:38;12.90;99.90
5258;DHT22;2651;51.594;9.928;2023-05-07T03:31:40;12.90;1.00
5258;DHT22;2651;51.594;9.928;2023-05-07T03:32:41;12.90;70.50
5258;DHT22;2651;51.594;9.928;2023-05-07T03:33:51;12.90;1.00
5258;DHT22;2651;51.594;9.928;2023-05-07T03:34:53;12.90;99.90
5258;DHT22;2651;51.594;9.928;2023-05-07T03:35:54;12.90;1.00
5258;DHT22;2651;51.594;9.928;2023-05-07T03:36:56;12.80;1.00
5258;DHT22;2651;51.594;9.928;2023-05-07T03:37:58;12.80;1.00
5258;DHT22;2651;51.594;9.928;2023-05-07T03:38:59;12.70;99.90
5258;DHT22;2651;51.594;9.928;2023-05-07T03:40:01;12.60;1.00
5258;DHT22;2651;51.594;9.928;2023-05-07T03:41:03;12.60;1.00
5258;DHT22;2651;51.594;9.928;2023-05-07T03:42:05;12.60;99.90
5258;DHT22;2651;51.594;9.928;2023-05-07T03:43:06;12.50;1.00
5258;DHT22;2651;51.594;9.928;2023-05-07T03:44:08;12.40;1.00
5258;DHT22;2651;51.594;9.928;2023-05-07T03:45:10;12.40;1.00
5258;DHT22;2651;51.594;9.928;2023-05-07T03:46:11;12.40;99.90
5258;DHT22;2651;51.594;9.928;2023-05-07T03:47:13;12.30;1.00
5258;DHT22;2651;51.594;9.928;2023-05-07T03:48:15;12.30;1.00
5258;DHT22;2651;51.594;9.928;2023-05-07T03:49:16;12.30;1.00
5258;DHT22;2651;51.594;9.928;2023-05-07T03:50:19;12.20;1.00
5258;DHT22;2651;51.594;9.928;2023-05-07T03:51:20;12.20;1.00
5258;DHT22;2651;51.594;9.928;2023-05-07T03:52:22;12.20;1.00
5258;DHT22;2651;51.594;9.928;2023-05-07T03:53:27;12.20;1.00
5258;DHT22;2651;51.594;9.928;2023-05-07T03:54:29;12.20;1.00
5258;DHT22;2651;51.594;9.928;2023-05-07T03:55:31;12.20;1.00
5258;DHT22;2651;51.594;9.928;2023-05-07T03:56:32;12.30;1.00
5258;DHT22;2651;51.594;9.928;2023-05-07T03:57:34;12.30;1.00
5258;DHT22;2651;51.594;9.928;2023-05-07T03:58:36;12.30;1.00
5258;DHT22;2651;51.594;9.928;2023-05-07T03:59:37;12.30;1.00
5258;DHT22;2651;51.594;9.928;2023-05-07T04:00:39;12.40;2.40
5258;DHT22;2651;51.594;9.928;2023-05-07T04:01:41;12.30;54.90
5258;DHT22;2651;51.594;9.928;2023-05-07T04:02:43;12.30;24.60
5258;DHT22;2651;51.594;9.928;2023-05-07T04:03:45;12.30;1.00
5258;DHT22;2651;51.594;9.928;2023-05-07T04:04:48;12.30;1.00
5258;DHT22;2651;51.594;9.928;2023-05-07T04:05:51;12.10;1.00
5258;DHT22;2651;51.594;9.928;2023-05-07T04:06:52;11.90;1.00
5258;DHT22;2651;51.594;9.928;2023-05-07T04:07:54;11.90;14.60
5258;DHT22;2651;51.594;9.928;2023-05-07T04:08:56;11.80;1.00
5258;DHT22;2651;51.594;9.928;2023-05-07T04:09:57;11.80;41.20
5258;DHT22;2651;51.594;9.928;2023-05-07T04:10:59;11.80;99.90
5258;DHT22;2651;51.594;9.928;2023-05-07T04:12:02;11.80;97.00
5258;DHT22;2651;51.594;9.928;2023-05-07T04:13:03;11.90;99.90
5258;DHT22;2651;51.594;9.928;2023-05-07T04:14:06;11.90;99.90
5258;DHT22;2651;51.594;9.928;2023-05-07T04:15:07;11.90;99.90
5258;DHT22;2651;51.594;9.928;2023-05-07T04:16:09;11.90;99.90
5258;DHT22;2651;51.594;9.928;2023-05-07T04:17:11;11.90;71.40
5258;DHT22;2651;51.594;9.928;2023-05-07T04:18:13;11.90;52.50
5258;DHT22;2651;51.594;9.928;2023-05-07T04:19:14;11.90;80.60
5258;DHT22;2651;51.594;9.928;2023-05-07T04:20:16;11.90;21.00
5258;DHT22;2651;51.594;9.928;2023-05-07T04:21:20;12.00;1.00
5258;DHT22;2651;51.594;9.928;2023-05-07T04:22:22;12.00;10.30
5258;DHT22;2651;51.594;9.928;2023-05-07T04:23:24;11.90;1.00
5258;DHT22;2651;51.594;9.928;2023-05-07T04:24:25;11.90;1.00
5258;DHT22;2651;51.594;9.928;2023-05-07T04:25:27;11.90;28.90
5258;DHT22;2651;51.594;9.928;2023-05-07T04:26:28;11.90;32.50
5258;DHT22;2651;51.594;9.928;2023-05-07T04:27:30;11.90;1.00
5258;DHT22;2651;51.594;9.928;2023-05-07T04:28:32;11.90;1.00
5258;DHT22;2651;51.594;9.928;2023-05-07T04:29:33;11.80;1.00
5258;DHT22;2651;51.594;9.928;2023-05-07T04:30:35;11.80;1.00
5258;DHT22;2651;51.594;9.928;2023-05-07T04:31:37;11.80;1.00
5258;DHT22;2651;51.594;9.928;2023-05-07T04:32:39;11.80;1.00
5258;DHT22;2651;51.594;9.928;2023-05-07T04:33:40;11.90;33.20
5258;DHT22;2651;51.594;9.928;2023-05-07T04:34:42;11.90;99.90
5258;DHT22;2651;51.594;9.928;2023-05-07T04:35:44;11.90;85.40
5258;DHT22;2651;51.594;9.928;2023-05-07T04:36:45;11.90;1.00
5258;DHT22;2651;51.594;9.928;2023-05-07T04:37:47;11.80;1.00
5258;DHT22;2651;51.594;9.928;2023-05-07T04:38:49;11.90;1.00
5258;DHT22;2651;51.594;9.928;2023-05-07T04:39:51;11.90;1.00
5258;DHT22;2651;51.594;9.928;2023-05-07T04:40:52;11.90;1.00
5258;DHT22;2651;51.594;9.928;2023-05-07T04:41:54;11.80;1.00
5258;DHT22;2651;51.594;9.928;2023-05-07T04:42:56;11.80;1.00
5258;DHT22;2651;51.594;9.928;2023-05-07T04:43:57;11.80;1.00
5258;DHT22;2651;51.594;9.928;2023-05-07T04:45:01;11.70;1.00
5258;DHT22;2651;51.594;9.928;2023-05-07T04:46:03;11.70;34.50
5258;DHT22;2651;51.594;9.928;2023-05-07T04:47:05;11.70;30.90
5258;DHT22;2651;51.594;9.928;2023-05-07T04:48:08;11.70;1.00
5258;DHT22;2651;51.594;9.928;2023-05-07T04:49:10;11.70;1.00
5258;DHT22;2651;51.594;9.928;2023-05-07T04:50:12;11.70;1.00
5258;DHT22;2651;51.594;9.928;2023-05-07T04:51:14;11.70;1.00
5258;DHT22;2651;51.594;9.928;2023-05-07T04:52:15;11.70;1.00
5258;DHT22;2651;51.594;9.928;2023-05-07T04:53:18;11.70;1.00
5258;DHT22;2651;51.594;9.928;2023-05-07T04:54:19;11.60;1.00
5258;DHT22;2651;51.594;9.928;2023-05-07T04:55:21;11.60;1.00
5258;DHT22;2651;51.594;9.928;2023-05-07T04:56:23;11.60;30.00
5258;DHT22;2651;51.594;9.928;2023-05-07T04:57:24;11.60;61.00
5258;DHT22;2651;51.594;9.928;2023-05-07T04:58:26;11.60;91.00
5258;DHT22;2651;51.594;9.928;2023-05-07T04:59:28;11.60;10.80
5258;DHT22;2651;51.594;9.928;2023-05-07T05:00:30;11.70;1.70
5258;DHT22;2651;51.594;9.928;2023-05-07T05:01:32;11.70;66.90
5258;DHT22;2651;51.594;9.928;2023-05-07T05:02:33;11.70;30.10
5258;DHT22;2651;51.594;9.928;2023-05-07T05:03:35;11.80;1.00
5258;DHT22;2651;51.594;9.928;2023-05-07T05:04:37;11.80;1.00
5258;DHT22;2651;51.594;9.928;2023-05-07T05:05:39;11.80;82.70
5258;DHT22;2651;51.594;9.928;2023-05-07T05:06:41;11.80;1.00
5258;DHT22;2651;51.594;9.928;2023-05-07T05:07:42;11.80;1.00
5258;DHT22;2651;51.594;9.928;2023-05-07T05:08:44;11.90;1.00
5258;DHT22;2651;51.594;9.928;2023-05-07T05:09:46;11.90;1.00
5258;DHT22;2651;51.594;9.928;2023-05-07T05:10:47;11.80;1.00
5258;DHT22;2651;51.594;9.928;2023-05-07T05:11:51;11.80;1.00
5258;DHT22;2651;51.594;9.928;2023-05-07T05:12:52;11.80;1.00
5258;DHT22;2651;51.594;9.928;2023-05-07T05:13:54;11.80;1.00
5258;DHT22;2651;51.594;9.928;2023-05-07T05:14:56;11.80;1.00
5258;DHT22;2651;51.594;9.928;2023-05-07T05:15:57;11.80;1.00
5258;DHT22;2651;51.594;9.928;2023-05-07T05:16:59;11.80;39.80
5258;DHT22;2651;51.594;9.928;2023-05-07T05:18:01;11.90;1.00
5258;DHT22;2651;51.594;9.928;2023-05-07T05:19:03;11.90;20.30
5258;DHT22;2651;51.594;9.928;2023-05-07T05:20:05;11.90;12.40
5258;DHT22;2651;51.594;9.928;2023-05-07T05:21:07;11.90;1.00
5258;DHT22;2651;51.594;9.928;2023-05-07T05:22:09;11.80;1.00
5258;DHT22;2651;51.594;9.928;2023-05-07T05:23:11;11.80;1.00
5258;DHT22;2651;51.594;9.928;2023-05-07T05:24:12;11.80;1.00
5258;DHT22;2651;51.594;9.928;2023-05-07T05:25:14;11.80;1.00
5258;DHT22;2651;51.594;9.928;2023-05-07T05:26:16;11.90;1.00
5258;DHT22;2651;51.594;9.928;2023-05-07T05:27:18;11.90;1.00
5258;DHT22;2651;51.594;9.928;2023-05-07T05:28:19;12.00;1.00
5258;DHT22;2651;51.594;9.928;2023-05-07T05:29:21;12.00;1.00
5258;DHT22;2651;51.594;9.928;2023-05-07T05:30:23;12.00;1.00
5258;DHT22;2651;51.594;9.928;2023-05-07T05:31:24;12.10;99.90
5258;DHT22;2651;51.594;9.928;2023-05-07T05:32:26;12.10;1.00
5258;DHT22;2651;51.594;9.928;2023-05-07T05:33:28;12.20;1.00
5258;DHT22;2651;51.594;9.928;2023-05-07T05:34:29;12.20;1.00
5258;DHT22;2651;51.594;9.928;2023-05-07T05:35:31;12.20;99.90
5258;DHT22;2651;51.594;9.928;2023-05-07T05:36:33;12.20;99.90
5258;DHT22;2651;51.594;9.928;2023-05-07T05:37:34;12.20;90.00
5258;DHT22;2651;51.594;9.928;2023-05-07T05:38:36;12.20;1.00
5258;DHT22;2651;51.594;9.928;2023-05-07T05:39:38;12.20;1.00
5258;DHT22;2651;51.594;9.928;2023-05-07T05:40:39;12.20;1.00
5258;DHT22;2651;51.594;9.928;2023-05-07T05:41:41;12.20;1.00
5258;DHT22;2651;51.594;9.928;2023-05-07T05:42:43;12.20;1.00
5258;DHT22;2651;51.594;9.928;2023-05-07T05:43:44;12.20;99.90
5258;DHT22;2651;51.594;9.928;2023-05-07T05:44:46;12.20;1.00
5258;DHT22;2651;51.594;9.928;2023-05-07T05:45:48;12.20;1.00
5258;DHT22;2651;51.594;9.928;2023-05-07T05:46:49;12.20;1.00
5258;DHT22;2651;51.594;9.928;2023-05-07T05:47:51;12.20;99.90
5258;DHT22;2651;51.594;9.928;2023-05-07T05:48:53;12.20;99.90
5258;DHT22;2651;51.594;9.928;2023-05-07T05:49:54;12.20;99.90
5258;DHT22;2651;51.594;9.928;2023-05-07T05:50:56;12.20;1.00
5258;DHT22;2651;51.594;9.928;2023-05-07T05:51:58;12.20;1.00
5258;DHT22;2651;51.594;9.928;2023-05-07T05:52:59;12.30;99.90
5258;DHT22;2651;51.594;9.928;2023-05-07T05:54:01;12.30;1.00
5258;DHT22;2651;51.594;9.928;2023-05-07T05:55:02;12.30;1.00
5258;DHT22;2651;51.594;9.928;2023-05-07T05:56:04;12.30;55.80
5258;DHT22;2651;51.594;9.928;2023-05-07T05:57:06;12.30;99.90
5258;DHT22;2651;51.594;9.928;2023-05-07T05:58:09;12.30;1.00
5258;DHT22;2651;51.594;9.928;2023-05-07T05:59:10;12.40;1.00
5258;DHT22;2651;51.594;9.928;2023-05-07T06:00:12;12.30;1.00
5258;DHT22;2651;51.594;9.928;2023-05-07T06:01:15;12.30;99.90
5258;DHT22;2651;51.594;9.928;2023-05-07T06:02:16;12.20;99.90
5258;DHT22;2651;51.594;9.928;2023-05-07T06:03:18;12.20;1.00
5258;DHT22;2651;51.594;9.928;2023-05-07T06:04:20;12.20;1.00
5258;DHT22;2651;51.594;9.928;2023-05-07T06:05:21;12.20;1.00
5258;DHT22;2651;51.594;9.928;2023-05-07T06:06:23;12.20;1.00
5258;DHT22;2651;51.594;9.928;2023-05-07T06:07:25;12.20;99.90
5258;DHT22;2651;51.594;9.928;2023-05-07T06:08:29;12.20;7.50
5258;DHT22;2651;51.594;9.928;2023-05-07T06:09:31;12.20;1.00
5258;DHT22;2651;51.594;9.928;2023-05-07T06:10:33;12.20;99.90
5258;DHT22;2651;51.594;9.928;2023-05-07T06:11:34;12.20;59.80
5258;DHT22;2651;51.594;9.928;2023-05-07T06:12:36;12.20;1.00
5258;DHT22;2651;51.594;9.928;2023-05-07T06:13:38;12.20;99.90
5258;DHT22;2651;51.594;9.928;2023-05-07T06:14:39;12.20;1.00
5258;DHT22;2651;51.594;9.928;2023-05-07T06:15:42;12.20;1.00
5258;DHT22;2651;51.594;9.928;2023-05-07T06:16:44;12.20;1.00
5258;DHT22;2651;51.594;9.928;2023-05-07T06:17:46;12.20;1.00
5258;DHT22;2651;51.594;9.928;2023-05-07T06:18:47;12.10;1.00
5258;DHT22;2651;51.594;9.928;2023-05-07T06:19:49;12.10;1.00
5258;DHT22;2651;51.594;9.928;2023-05-07T06:20:51;12.20;99.90
5258;DHT22;2651;51.594;9.928;2023-05-07T06:21:53;12.20;99.90
5258;DHT22;2651;51.594;9.928;2023-05-07T06:22:55;12.10;99.90
5258;DHT22;2651;51.594;9.928;2023-05-07T06:23:57;12.10;99.90
5258;DHT22;2651;51.594;9.928;2023-05-07T06:24:58;12.10;1.00
5258;DHT22;2651;51.594;9.928;2023-05-07T06:26:00;12.10;1.00
5258;DHT22;2651;51.594;9.928;2023-05-07T06:27:02;12.10;1.00
5258;DHT22;2651;51.594;9.928;2023-05-07T06:28:03;12.00;99.90
5258;DHT22;2651;51.594;9.928;2023-05-07T06:29:06;12.00;1.00
5258;DHT22;2651;51.594;9.928;2023-05-07T06:30:08;12.00;1.00
5258;DHT22;2651;51.594;9.928;2023-05-07T06:31:18;12.00;1.00
5258;DHT22;2651;51.594;9.928;2023-05-07T06:32:22;12.00;1.00
5258;DHT22;2651;51.594;9.928;2023-05-07T06:33:23;12.10;1.00
5258;DHT22;2651;51.594;9.928;2023-05-07T06:34:25;12.10;1.00
5258;DHT22;2651;51.594;9.928;2023-05-07T06:35:27;12.10;1.00
5258;DHT22;2651;51.594;9.928;2023-05-07T06:36:28;12.00;1.00
5258;DHT22;2651;51.594;9.928;2023-05-07T06:37:31;12.00;1.00
5258;DHT22;2651;51.594;9.928;2023-05-07T06:38:32;11.90;1.00
5258;DHT22;2651;51.594;9.928;2023-05-07T06:39:34;11.90;1.00
5258;DHT22;2651;51.594;9.928;2023-05-07T06:40:36;11.90;1.00
5258;DHT22;2651;51.594;9.928;2023-05-07T06:41:38;11.90;1.00
5258;DHT22;2651;51.594;9.928;2023-05-07T06:42:40;11.90;1.00
5258;DHT22;2651;51.594;9.928;2023-05-07T06:43:42;11.80;1.00
5258;DHT22;2651;51.594;9.928;2023-05-07T06:44:43;11.90;76.00
5258;DHT22;2651;51.594;9.928;2023-05-07T06:45:45;11.90;1.00
5258;DHT22;2651;51.594;9.928;2023-05-07T06:46:46;11.80;1.00
5258;DHT22;2651;51.594;9.928;2023-05-07T06:47:48;11.70;1.00
5258;DHT22;2651;51.594;9.928;2023-05-07T06:48:50;11.70;1.00